createdAt,value
2023-01-09T00:00:57.196Z,82.40
2023-01-09T00:03:24.365Z,82.40
2023-01-09T00:05:51.511Z,82.30
2023-01-09T00:08:19.181Z,83.00
2023-01-09T00:10:48.433Z,83.10
2023-01-09T00:13:15.543Z,83.40
2023-01-09T00:15:42.589Z,83.40
2023-01-09T00:18:09.860Z,83.50
2023-01-09T00:20:36.941Z,83.90
2023-01-09T00:23:04.306Z,84.00
2023-01-09T00:25:34.478Z,83.90
2023-01-09T00:28:01.759Z,84.20
2023-01-09T00:30:30.419Z,84.40
2023-01-09T00:32:57.529Z,85.10
2023-01-09T00:35:25.943Z,85.00
2023-01-09T00:37:53.263Z,85.40
2023-01-09T00:40:20.618Z,84.90
2023-01-09T00:42:55.996Z,85.00
2023-01-09T00:45:28.797Z,85.10
2023-01-09T00:48:02.772Z,85.30
2023-01-09T00:50:32.991Z,85.50
2023-01-09T00:53:05.184Z,85.80
2023-01-09T00:55:34.516Z,85.80
2023-01-09T00:58:02.947Z,85.70
2023-01-09T01:00:30.154Z,85.50
2023-01-09T01:02:57.589Z,85.50
2023-01-09T01:05:43.891Z,85.50
2023-01-09T01:08:12.754Z,85.70
2023-01-09T01:10:40.263Z,85.70
2023-01-09T01:13:07.497Z,85.60
2023-01-09T01:15:34.695Z,85.50
2023-01-09T01:18:01.959Z,85.30
2023-01-09T01:20:29.034Z,85.40
2023-01-09T01:22:56.110Z,85.40
2023-01-09T01:25:23.934Z,85.40
2023-01-09T01:27:51.337Z,85.40
2023-01-09T01:30:19.762Z,85.20
2023-01-09T01:32:46.896Z,86.30
2023-01-09T01:35:13.991Z,87.10
2023-01-09T01:37:41.223Z,87.20
2023-01-09T01:40:10.211Z,86.50
2023-01-09T01:42:37.435Z,86.70
2023-01-09T01:45:15.015Z,87.00
2023-01-09T01:48:10.983Z,87.30
2023-01-09T01:50:44.474Z,87.40
2023-01-09T01:53:36.535Z,87.30
2023-01-09T01:56:13.913Z,87.30
2023-01-09T01:58:52.888Z,87.10
2023-01-09T02:01:21.101Z,87.10
2023-01-09T02:03:49.593Z,87.20
2023-01-09T02:06:16.938Z,87.30
2023-01-09T02:08:44.244Z,87.30
2023-01-09T02:11:14.276Z,87.20
2023-01-09T02:13:42.159Z,87.10
2023-01-09T02:16:24.515Z,87.00
2023-01-09T02:19:23.236Z,87.00
2023-01-09T02:22:08.091Z,86.80
2023-01-09T02:24:53.640Z,86.70
2023-01-09T02:27:39.646Z,86.70
2023-01-09T02:30:25.816Z,86.60
2023-01-09T02:33:06.220Z,86.70
2023-01-09T02:35:57.898Z,86.70
2023-01-09T02:38:31.768Z,88.10
2023-01-09T02:41:28.002Z,88.80
2023-01-09T02:44:24.008Z,88.80
2023-01-09T02:47:20.582Z,88.60
2023-01-09T02:49:53.579Z,88.90
2023-01-09T02:53:06.264Z,89.40
2023-01-09T02:55:43.904Z,89.10
2023-01-09T02:58:42.002Z,89.20
2023-01-09T03:01:35.530Z,88.90
2023-01-09T03:04:10.430Z,89.20
2023-01-09T03:07:06.085Z,88.50
2023-01-09T03:09:36.049Z,88.20
2023-01-09T03:12:11.513Z,88.10
2023-01-09T03:14:43.097Z,87.70
2023-01-09T03:17:14.262Z,87.50
2023-01-09T03:19:42.976Z,87.40
2023-01-09T03:22:10.080Z,87.20
2023-01-09T03:24:38.799Z,87.50
2023-01-09T03:27:08.245Z,87.70
2023-01-09T03:29:35.775Z,87.90
2023-01-09T03:32:03.306Z,88.10
2023-01-09T03:34:30.438Z,88.40
2023-01-09T03:36:57.720Z,89.10
2023-01-09T03:39:24.768Z,90.00
2023-01-09T03:41:51.802Z,90.10
2023-01-09T03:44:18.943Z,90.20
2023-01-09T03:46:46.063Z,90.40
2023-01-09T03:49:13.839Z,90.40
2023-01-09T03:51:40.895Z,90.50
2023-01-09T03:54:07.974Z,90.30
2023-01-09T03:56:35.153Z,90.60
2023-01-09T03:59:02.264Z,90.10
2023-01-09T04:01:29.451Z,90.00
2023-01-09T04:03:56.607Z,89.80
2023-01-09T04:06:23.919Z,89.60
2023-01-09T04:08:50.979Z,89.40
2023-01-09T04:11:18.264Z,89.40
2023-01-09T04:13:45.344Z,89.20
2023-01-09T04:16:12.501Z,89.10
2023-01-09T04:18:39.633Z,89.10
2023-01-09T04:21:06.700Z,89.10
2023-01-09T04:23:33.755Z,88.90
2023-01-09T04:26:00.867Z,88.90
2023-01-09T04:28:27.927Z,88.70
2023-01-09T04:30:54.984Z,88.70
2023-01-09T04:33:22.055Z,88.50
2023-01-09T04:35:49.192Z,88.70
2023-01-09T04:38:16.293Z,89.50
2023-01-09T04:40:43.415Z,89.80
2023-01-09T04:43:10.481Z,90.00
2023-01-09T04:45:37.563Z,89.90
2023-01-09T04:48:05.705Z,90.00
2023-01-09T04:50:32.810Z,90.00
2023-01-09T04:52:59.900Z,90.00
2023-01-09T04:55:27.048Z,90.00
2023-01-09T04:57:54.097Z,90.10
2023-01-09T05:00:21.270Z,90.10
2023-01-09T05:02:48.362Z,90.10
2023-01-09T05:05:15.495Z,90.00
2023-01-09T05:07:42.575Z,90.00
2023-01-09T05:10:10.483Z,89.90
2023-01-09T05:12:37.938Z,89.90
2023-01-09T05:15:06.621Z,89.70
2023-01-09T05:17:33.707Z,89.50
2023-01-09T05:20:01.027Z,89.40
2023-01-09T05:22:28.926Z,89.40
2023-01-09T05:24:56.093Z,89.20
2023-01-09T05:27:23.355Z,89.20
2023-01-09T05:29:50.443Z,89.10
2023-01-09T05:32:17.536Z,89.00
2023-01-09T05:34:44.593Z,89.20
2023-01-09T05:37:11.657Z,88.60
2023-01-09T05:39:38.819Z,89.00
2023-01-09T05:42:05.899Z,88.40
2023-01-09T05:44:32.943Z,88.20
2023-01-09T05:47:02.570Z,87.70
2023-01-09T05:49:29.879Z,87.40
2023-01-09T05:51:56.921Z,87.30
2023-01-09T05:54:24.040Z,87.30
2023-01-09T05:56:51.283Z,87.70
2023-01-09T05:59:18.471Z,86.90
2023-01-09T06:01:45.577Z,87.00
2023-01-09T06:04:12.654Z,86.80
2023-01-09T06:06:40.869Z,86.70
2023-01-09T06:09:08.205Z,86.60
2023-01-09T06:11:35.763Z,86.60
2023-01-09T06:14:02.917Z,86.70
2023-01-09T06:16:30.003Z,86.80
2023-01-09T06:18:57.190Z,87.10
2023-01-09T06:21:24.479Z,87.20
2023-01-09T06:23:51.562Z,87.20
2023-01-09T06:26:18.604Z,87.20
2023-01-09T06:28:45.680Z,87.20
2023-01-09T06:31:13.354Z,87.30
2023-01-09T06:33:40.739Z,87.50
2023-01-09T06:36:08.259Z,87.60
2023-01-09T06:38:35.310Z,87.70
2023-01-09T06:41:02.365Z,88.10
2023-01-09T06:43:29.477Z,89.30
2023-01-09T06:45:56.868Z,89.80
2023-01-09T06:48:24.987Z,89.90
2023-01-09T06:50:52.948Z,90.10
2023-01-09T06:53:20.527Z,90.30
2023-01-09T06:55:47.608Z,90.30
2023-01-09T06:58:15.174Z,90.20
2023-01-09T07:00:42.508Z,90.30
2023-01-09T07:03:11.422Z,90.40
2023-01-09T07:05:42.196Z,90.40
2023-01-09T07:08:10.094Z,90.40
2023-01-09T07:10:37.332Z,90.80
2023-01-09T07:13:04.413Z,90.60
2023-01-09T07:15:31.546Z,90.60
2023-01-09T07:17:59.089Z,90.50
2023-01-09T07:20:26.224Z,90.60
2023-01-09T07:22:54.169Z,90.40
2023-01-09T07:25:21.638Z,90.30
2023-01-09T07:27:48.762Z,90.30
2023-01-09T07:30:16.247Z,90.20
2023-01-09T07:32:43.523Z,90.10
2023-01-09T07:35:11.177Z,90.10
2023-01-09T07:37:38.247Z,90.00
2023-01-09T07:40:05.882Z,90.00
2023-01-09T07:42:33.187Z,90.00
2023-01-09T07:45:00.297Z,89.80
2023-01-09T07:47:27.355Z,89.70
2023-01-09T07:49:54.450Z,89.80
2023-01-09T07:52:21.529Z,88.80
2023-01-09T07:54:48.895Z,89.50
2023-01-09T07:57:15.980Z,88.80
2023-01-09T07:59:43.144Z,88.40
2023-01-09T08:02:10.493Z,88.20
2023-01-09T08:04:37.658Z,88.00
2023-01-09T08:07:04.762Z,87.90
2023-01-09T08:09:31.847Z,87.80
2023-01-09T08:11:58.958Z,88.00
2023-01-09T08:14:26.038Z,87.80
2023-01-09T08:16:53.074Z,88.40
2023-01-09T08:19:20.310Z,87.90
2023-01-09T08:21:47.454Z,88.30
2023-01-09T08:24:14.540Z,87.90
2023-01-09T08:26:41.663Z,87.90
2023-01-09T08:29:08.744Z,87.80
2023-01-09T08:31:35.880Z,88.00
2023-01-09T08:34:03.072Z,87.80
2023-01-09T08:36:30.148Z,87.80
2023-01-09T08:38:57.239Z,87.90
2023-01-09T08:41:42.768Z,88.60
2023-01-09T08:44:28.323Z,88.30
2023-01-09T08:47:07.609Z,88.50
2023-01-09T08:49:36.433Z,88.60
2023-01-09T08:52:04.980Z,88.60
2023-01-09T08:54:36.745Z,88.60
2023-01-09T08:57:03.951Z,88.50
2023-01-09T08:59:31.145Z,88.40
2023-01-09T09:01:58.409Z,88.50
2023-01-09T09:04:25.829Z,88.40
2023-01-09T09:06:52.897Z,88.10
2023-01-09T09:09:20.021Z,88.10
2023-01-09T09:11:47.078Z,88.00
2023-01-09T09:14:32.925Z,87.90
2023-01-09T09:16:59.996Z,87.90
2023-01-09T09:19:27.076Z,87.70
2023-01-09T09:21:54.135Z,87.00
2023-01-09T09:24:21.328Z,86.60
2023-01-09T09:26:48.433Z,86.60
2023-01-09T09:29:16.508Z,86.70
2023-01-09T09:31:43.623Z,86.70
2023-01-09T09:34:10.703Z,84.40
2023-01-09T09:36:37.823Z,76.60
2023-01-09T09:39:07.202Z,77.00
2023-01-09T09:41:58.827Z,76.00
2023-01-09T09:44:53.505Z,78.10
2023-01-09T09:47:48.008Z,79.70
2023-01-09T09:50:17.901Z,79.30
2023-01-09T09:53:10.326Z,79.00
2023-01-09T09:55:40.288Z,78.60
2023-01-09T09:58:21.793Z,79.00
2023-01-09T10:00:53.341Z,77.70
2023-01-09T10:03:44.913Z,72.10
2023-01-09T10:06:29.394Z,66.00
2023-01-09T10:09:21.657Z,71.20
2023-01-09T10:12:08.110Z,69.20
2023-01-09T10:14:35.216Z,73.60
2023-01-09T10:17:28.602Z,73.20
2023-01-09T10:20:11.613Z,71.40
2023-01-09T10:22:47.286Z,66.00
2023-01-09T10:25:53.735Z,70.10
2023-01-09T10:28:58.451Z,70.00
2023-01-09T10:31:28.713Z,69.20
2023-01-09T10:34:23.810Z,67.60
2023-01-09T10:37:09.592Z,68.00
2023-01-09T10:40:03.040Z,69.10
2023-01-09T10:42:36.446Z,70.40
2023-01-09T10:45:34.411Z,71.80
2023-01-09T10:48:31.284Z,72.00
2023-01-09T10:50:59.397Z,72.00
2023-01-09T10:53:39.466Z,72.70
2023-01-09T10:56:29.789Z,72.20
2023-01-09T10:58:57.052Z,72.20
2023-01-09T11:01:38.103Z,72.80
2023-01-09T11:04:30.989Z,72.60
2023-01-09T11:07:25.930Z,75.10
2023-01-09T11:10:00.671Z,74.50
2023-01-09T11:12:32.864Z,75.20
2023-01-09T11:15:20.785Z,74.90
2023-01-09T11:17:50.166Z,76.10
2023-01-09T11:20:19.057Z,76.70
2023-01-09T11:22:51.281Z,76.20
2023-01-09T11:25:20.771Z,76.60
2023-01-09T11:28:03.065Z,76.60
2023-01-09T11:30:36.210Z,77.00
2023-01-09T11:33:41.194Z,77.00
2023-01-09T11:36:13.433Z,77.30
2023-01-09T11:38:50.037Z,77.20
2023-01-09T11:41:20.516Z,77.50
2023-01-09T11:43:50.516Z,77.50
2023-01-09T11:46:37.111Z,77.60
2023-01-09T11:49:26.056Z,77.80
2023-01-09T11:52:20.332Z,77.70
2023-01-09T11:55:00.845Z,77.60
2023-01-09T11:57:27.995Z,77.50
2023-01-09T12:00:01.636Z,77.40
2023-01-09T12:02:56.142Z,77.30
2023-01-09T12:05:50.661Z,77.40
2023-01-09T12:09:02.151Z,77.30
2023-01-09T12:11:52.132Z,77.40
2023-01-09T12:14:28.524Z,77.20
2023-01-09T12:17:24.529Z,77.20
2023-01-09T12:20:10.194Z,77.00
2023-01-09T12:22:59.767Z,76.70
2023-01-09T12:25:32.369Z,76.70
2023-01-09T12:28:37.746Z,76.60
2023-01-09T12:31:44.235Z,76.60
2023-01-09T12:34:32.613Z,76.50
2023-01-09T12:37:29.267Z,76.60
2023-01-09T12:40:16.068Z,76.30
2023-01-09T12:43:02.341Z,76.30
2023-01-09T12:45:48.101Z,76.30
2023-01-09T12:48:53.456Z,76.20
2023-01-09T12:51:48.641Z,76.10
2023-01-09T12:54:31.462Z,76.00
2023-01-09T12:57:04.602Z,76.00
2023-01-09T12:59:49.109Z,75.70
2023-01-09T13:02:32.521Z,75.60
2023-01-09T13:05:15.784Z,75.80
2023-01-09T13:07:59.954Z,76.20
2023-01-09T13:10:37.159Z,76.10
2023-01-09T13:13:19.366Z,76.20
2023-01-09T13:15:51.039Z,76.30
2023-01-09T13:18:40.929Z,76.00
2023-01-09T13:21:09.065Z,75.80
2023-01-09T13:24:01.586Z,75.80
2023-01-09T13:26:39.391Z,75.70
2023-01-09T13:29:28.801Z,75.80
2023-01-09T13:32:17.691Z,76.70
2023-01-09T13:34:49.345Z,76.40
2023-01-09T13:37:23.839Z,75.90
2023-01-09T13:40:15.889Z,75.80
2023-01-09T13:42:46.445Z,75.60
2023-01-09T13:45:20.217Z,75.50
2023-01-09T13:48:07.416Z,75.50
2023-01-09T13:50:35.501Z,75.50
2023-01-09T13:53:18.084Z,75.20
2023-01-09T13:56:06.556Z,75.30
2023-01-09T13:58:36.461Z,75.30
2023-01-09T14:01:37.427Z,75.50
2023-01-09T14:04:36.442Z,75.70
2023-01-09T14:07:26.900Z,75.40
2023-01-09T14:10:00.229Z,75.30
2023-01-09T14:12:29.818Z,75.20
2023-01-09T14:15:01.968Z,75.30
2023-01-09T14:17:35.411Z,75.60
2023-01-09T14:20:06.944Z,75.00
2023-01-09T14:22:45.626Z,73.50
2023-01-09T14:25:26.633Z,72.30
2023-01-09T14:28:00.177Z,72.30
2023-01-09T14:30:27.306Z,72.80
2023-01-09T14:33:05.048Z,73.50
2023-01-09T14:35:55.483Z,74.20
2023-01-09T14:38:48.089Z,75.10
2023-01-09T14:41:51.528Z,75.20
2023-01-09T14:44:57.068Z,75.90
2023-01-09T14:47:54.209Z,76.60
2023-01-09T14:50:27.180Z,77.00
2023-01-09T14:53:20.358Z,77.10
2023-01-09T14:55:59.791Z,77.20
2023-01-09T14:58:31.981Z,77.60
2023-01-09T15:01:06.255Z,78.00
2023-01-09T15:03:44.918Z,78.20
2023-01-09T15:06:22.613Z,78.30
2023-01-09T15:09:00.164Z,78.50
2023-01-09T15:11:28.668Z,78.60
2023-01-09T15:13:58.915Z,78.90
2023-01-09T15:16:27.283Z,79.00
2023-01-09T15:19:01.347Z,79.10
2023-01-09T15:21:30.921Z,79.10
2023-01-09T15:24:28.688Z,79.30
2023-01-09T15:27:01.853Z,79.40
2023-01-09T15:29:29.286Z,79.20
2023-01-09T15:32:05.422Z,79.10
2023-01-09T15:34:33.201Z,79.40
2023-01-09T15:37:02.931Z,79.60
2023-01-09T15:39:36.060Z,79.60
2023-01-09T15:42:22.366Z,79.60
2023-01-09T15:44:52.103Z,79.80
2023-01-09T15:47:29.458Z,79.80
2023-01-09T15:49:57.720Z,79.80
2023-01-09T15:52:25.600Z,80.20
2023-01-09T15:54:52.761Z,79.80
2023-01-09T15:57:26.037Z,79.80
2023-01-09T16:00:17.181Z,79.80
2023-01-09T16:03:04.687Z,79.70
2023-01-09T16:05:33.256Z,79.70
2023-01-09T16:08:02.048Z,79.80
2023-01-09T16:10:35.578Z,79.80
2023-01-09T16:13:03.476Z,79.80
2023-01-09T16:15:33.299Z,79.70
2023-01-09T16:18:06.330Z,79.40
2023-01-09T16:20:33.525Z,79.30
2023-01-09T16:23:01.874Z,79.30
2023-01-09T16:25:34.100Z,79.30
2023-01-09T16:28:24.326Z,78.80
2023-01-09T16:30:55.207Z,76.50
2023-01-09T16:33:25.246Z,73.50
2023-01-09T16:35:53.039Z,70.60
2023-01-09T16:38:21.094Z,69.10
2023-01-09T16:41:25.975Z,67.40
2023-01-09T16:43:53.144Z,68.90
2023-01-09T16:46:21.484Z,66.80
2023-01-09T16:48:48.978Z,67.90
2023-01-09T16:51:22.031Z,68.90
2023-01-09T16:53:49.812Z,70.00
2023-01-09T16:56:23.687Z,70.60
2023-01-09T16:58:53.277Z,71.10
2023-01-09T17:01:21.923Z,71.60
2023-01-09T17:03:49.487Z,71.80
2023-01-09T17:06:24.377Z,71.80
2023-01-09T17:08:51.572Z,73.00
2023-01-09T17:11:32.839Z,73.10
2023-01-09T17:14:01.331Z,73.80
2023-01-09T17:16:29.887Z,73.90
2023-01-09T17:18:57.068Z,74.50
2023-01-09T17:21:28.787Z,74.90
2023-01-09T17:24:15.014Z,75.40
2023-01-09T17:27:04.683Z,75.50
2023-01-09T17:29:33.332Z,75.60
2023-01-09T17:32:00.605Z,75.20
2023-01-09T17:34:27.797Z,75.90
2023-01-09T17:36:55.651Z,76.10
2023-01-09T17:39:25.747Z,76.40
2023-01-09T17:41:53.496Z,76.60
2023-01-09T17:44:20.581Z,76.60
2023-01-09T17:46:47.680Z,76.70
2023-01-09T17:49:20.118Z,76.80
2023-01-09T17:51:47.205Z,76.90
2023-01-09T17:54:14.472Z,77.00
2023-01-09T17:56:44.977Z,77.00
2023-01-09T17:59:13.799Z,77.00
2023-01-09T18:01:41.799Z,77.20
2023-01-09T18:04:09.554Z,77.50
2023-01-09T18:06:37.004Z,77.60
2023-01-09T18:09:04.944Z,77.90
2023-01-09T18:11:32.032Z,78.10
2023-01-09T18:13:59.166Z,78.30
2023-01-09T18:16:27.889Z,78.40
2023-01-09T18:18:57.550Z,78.70
2023-01-09T18:21:27.179Z,78.60
2023-01-09T18:23:55.204Z,78.40
2023-01-09T18:26:22.764Z,78.50
2023-01-09T18:28:51.282Z,78.20
2023-01-09T18:31:22.657Z,78.10
2023-01-09T18:33:52.182Z,78.20
2023-01-09T18:36:30.620Z,78.30
2023-01-09T18:38:59.189Z,78.60
2023-01-09T18:41:27.056Z,78.80
2023-01-09T18:43:57.505Z,78.70
2023-01-09T18:46:25.642Z,78.90
2023-01-09T18:48:53.857Z,79.20
2023-01-09T18:51:22.087Z,79.40
2023-01-09T18:53:49.944Z,79.40
2023-01-09T18:56:19.114Z,79.30
2023-01-09T18:58:47.051Z,80.00
2023-01-09T19:01:15.312Z,80.80
2023-01-09T19:03:42.508Z,80.80
2023-01-09T19:06:09.887Z,80.50
2023-01-09T19:08:37.225Z,80.30
2023-01-09T19:11:04.723Z,80.30
2023-01-09T19:13:34.020Z,80.40
2023-01-09T19:16:01.854Z,80.10
2023-01-09T19:18:32.275Z,80.30
2023-01-09T19:20:59.362Z,80.30
2023-01-09T19:23:26.496Z,80.30
2023-01-09T19:25:54.389Z,80.20
2023-01-09T19:28:21.984Z,80.10
2023-01-09T19:30:58.165Z,79.90
2023-01-09T19:33:25.667Z,79.90
2023-01-09T19:35:53.338Z,79.80
2023-01-09T19:38:23.009Z,79.80
2023-01-09T19:40:50.387Z,79.70
2023-01-09T19:43:25.877Z,79.70
2023-01-09T19:45:54.937Z,79.70
2023-01-09T19:48:23.773Z,79.70
2023-01-09T19:50:50.978Z,79.70
2023-01-09T19:53:18.326Z,79.60
2023-01-09T19:55:45.423Z,80.40
2023-01-09T19:58:12.525Z,80.40
2023-01-09T20:00:39.605Z,80.20
2023-01-09T20:03:06.638Z,80.00
2023-01-09T20:05:33.784Z,79.80
2023-01-09T20:08:03.380Z,79.80
2023-01-09T20:10:33.795Z,79.80
2023-01-09T20:13:00.828Z,79.80
2023-01-09T20:15:27.877Z,79.70
2023-01-09T20:17:54.927Z,79.60
2023-01-09T20:20:21.986Z,79.60
2023-01-09T20:22:49.044Z,79.60
2023-01-09T20:25:16.155Z,81.00
2023-01-09T20:27:43.225Z,80.40
2023-01-09T20:30:10.942Z,80.30
2023-01-09T20:32:38.235Z,80.70
2023-01-09T20:35:05.729Z,80.80
2023-01-09T20:37:32.780Z,80.80
2023-01-09T20:39:59.954Z,80.60
2023-01-09T20:42:27.077Z,80.50
2023-01-09T20:44:55.543Z,80.60
2023-01-09T20:47:22.618Z,81.10
2023-01-09T20:49:49.830Z,80.80
2023-01-09T20:52:16.920Z,80.80
2023-01-09T20:54:45.877Z,81.00
2023-01-09T20:57:12.963Z,81.70
2023-01-09T20:59:40.040Z,81.30
2023-01-09T21:02:13.324Z,81.10
2023-01-09T21:04:40.449Z,81.40
2023-01-09T21:07:09.184Z,81.20
2023-01-09T21:09:36.402Z,81.90
2023-01-09T21:12:23.577Z,81.20
2023-01-09T21:14:55.040Z,81.20
2023-01-09T21:17:22.530Z,81.10
2023-01-09T21:19:50.101Z,81.10
2023-01-09T21:22:17.172Z,80.90
2023-01-09T21:24:44.259Z,80.60
2023-01-09T21:27:11.337Z,80.50
2023-01-09T21:29:38.412Z,80.60
2023-01-09T21:32:05.524Z,80.60
2023-01-09T21:34:32.703Z,80.60
2023-01-09T21:36:59.950Z,80.60
2023-01-09T21:39:27.122Z,80.50
2023-01-09T21:42:12.885Z,81.10
2023-01-09T21:44:58.460Z,80.60
2023-01-09T21:47:25.510Z,80.50
2023-01-09T21:49:52.628Z,80.50
2023-01-09T21:52:20.809Z,80.50
2023-01-09T21:54:47.945Z,80.40
2023-01-09T21:57:15.326Z,80.30
2023-01-09T21:59:42.414Z,80.40
2023-01-09T22:02:12.402Z,80.50
2023-01-09T22:04:39.762Z,80.70
2023-01-09T22:07:06.861Z,80.50
2023-01-09T22:09:33.910Z,80.80
2023-01-09T22:12:00.975Z,80.80
2023-01-09T22:14:28.084Z,80.80
2023-01-09T22:16:55.158Z,80.80
2023-01-09T22:19:22.292Z,80.80
2023-01-09T22:21:49.377Z,81.00
2023-01-09T22:24:18.056Z,80.80
2023-01-09T22:26:45.677Z,80.40
2023-01-09T22:29:12.838Z,80.90
2023-01-09T22:31:40.497Z,81.10
2023-01-09T22:34:07.786Z,81.10
2023-01-09T22:36:35.068Z,81.00
2023-01-09T22:39:02.232Z,81.00
2023-01-09T22:41:30.418Z,81.20
2023-01-09T22:43:57.919Z,81.40
2023-01-09T22:46:25.522Z,82.10
2023-01-09T22:48:52.609Z,81.20
2023-01-09T22:51:21.507Z,81.00
2023-01-09T22:53:49.343Z,81.20
2023-01-09T22:56:18.713Z,81.80
2023-01-09T22:58:53.860Z,82.10
2023-01-09T23:01:22.453Z,81.80
2023-01-09T23:03:49.609Z,82.50
2023-01-09T23:06:20.234Z,82.20
2023-01-09T23:08:50.843Z,82.00
2023-01-09T23:11:43.361Z,82.20
2023-01-09T23:14:11.512Z,82.60
2023-01-09T23:16:38.867Z,82.50
2023-01-09T23:19:07.234Z,82.80
2023-01-09T23:21:34.516Z,82.90
2023-01-09T23:24:01.951Z,82.90
2023-01-09T23:26:29.083Z,83.00
2023-01-09T23:28:56.145Z,83.00
2023-01-09T23:31:23.206Z,83.30
2023-01-09T23:33:50.257Z,83.20
2023-01-09T23:36:17.320Z,82.90
2023-01-09T23:38:44.704Z,83.00
2023-01-09T23:41:11.744Z,83.40
2023-01-09T23:43:40.885Z,83.60
2023-01-09T23:46:08.141Z,83.60
2023-01-09T23:48:35.277Z,83.70
2023-01-09T23:51:03.269Z,84.00
2023-01-09T23:53:32.740Z,83.80
2023-01-09T23:56:01.054Z,83.70
2023-01-09T23:58:28.135Z,83.80
